Pagrindinis puslapis
METAR-TAF:

METAR-TAF

Oro uostai :

Kajanis, Suomija

platuma: 64-17N, ilguma: 027-41E, Aukštis: 143 m

Dabartinis oras

Ataskaita buvo paskelbta 28 minutes, ne 10:20 UTC
Vėjas 5 kt iš Pietų, svyruoja nuo Pietų/Pietryčių ir Pietų/Pietvakarių
Temperatūra 9°C
Drėgmė 87%
Slėgis 1008 hPa
Matomumas 10 km arba daugiau
Apsiniaukę ne aukštis 800 ft

METAR: EFKI 021020Z AUTO 18005KT 150V210 9999 OVC008 09/07 Q1008

Laikas: 13:48 (10:48 UTC)


TAF: trūkstamas

Orai ataskaitas ir orų prognozės (METAR, TAF).

turimą stotys yra geltonos ir raudonos taškus žemėlapyje.

Perkelti pele per norėdami pamatyti stoties vardą.

Tada spustelėkite, norėdami matyti oro stebėjimo ir prognozės.

Norėdami pakeisti žemėlapį: spustelėkite ant žalios mygtukų su juodo kryžiaus žemyn,; žalią mygtuką su brūkšneliu, jei norite nutolinti; arba žalių rodyklių gretimoms žemėlapius.


METAR-TAF: